sensor_id;sensor_type;location;lat;lon;timestamp;P1;durP1;ratioP1;P2;durP2;ratioP2
3801;SDS011;1916;51.798;12.246;2022-08-25T00:00:53;18.13;;;13.87;;
3801;SDS011;1916;51.798;12.246;2022-08-25T00:02:55;16.93;;;13.90;;
3801;SDS011;1916;51.798;12.246;2022-08-25T00:04:58;22.87;;;16.03;;
3801;SDS011;1916;51.798;12.246;2022-08-25T00:07:02;22.00;;;15.97;;
3801;SDS011;1916;51.798;12.246;2022-08-25T00:09:05;24.93;;;17.20;;
3801;SDS011;1916;51.798;12.246;2022-08-25T00:11:09;21.10;;;15.50;;
3801;SDS011;1916;51.798;12.246;2022-08-25T00:13:12;18.40;;;15.73;;
3801;SDS011;1916;51.798;12.246;2022-08-25T00:15:14;21.33;;;15.60;;
3801;SDS011;1916;51.798;12.246;2022-08-25T00:17:16;18.60;;;15.03;;
3801;SDS011;1916;51.798;12.246;2022-08-25T00:19:21;21.73;;;14.83;;
3801;SDS011;1916;51.798;12.246;2022-08-25T00:21:25;19.53;;;14.37;;
3801;SDS011;1916;51.798;12.246;2022-08-25T00:23:28;17.30;;;15.10;;
3801;SDS011;1916;51.798;12.246;2022-08-25T00:25:30;20.63;;;15.07;;
3801;SDS011;1916;51.798;12.246;2022-08-25T00:27:32;16.67;;;14.00;;
3801;SDS011;1916;51.798;12.246;2022-08-25T00:29:34;20.13;;;14.10;;
3801;SDS011;1916;51.798;12.246;2022-08-25T00:31:38;18.20;;;15.20;;
3801;SDS011;1916;51.798;12.246;2022-08-25T00:33:41;19.50;;;14.23;;
3801;SDS011;1916;51.798;12.246;2022-08-25T00:35:45;24.60;;;15.60;;
3801;SDS011;1916;51.798;12.246;2022-08-25T00:37:47;19.60;;;15.00;;
3801;SDS011;1916;51.798;12.246;2022-08-25T00:39:49;17.40;;;13.97;;
3801;SDS011;1916;51.798;12.246;2022-08-25T00:41:51;18.97;;;14.43;;
3801;SDS011;1916;51.798;12.246;2022-08-25T00:43:58;20.40;;;14.10;;
3801;SDS011;1916;51.798;12.246;2022-08-25T00:46:01;18.03;;;14.30;;
3801;SDS011;1916;51.798;12.246;2022-08-25T00:48:04;18.63;;;14.10;;
3801;SDS011;1916;51.798;12.246;2022-08-25T00:50:06;20.23;;;14.70;;
3801;SDS011;1916;51.798;12.246;2022-08-25T00:52:11;23.43;;;15.40;;
3801;SDS011;1916;51.798;12.246;2022-08-25T00:54:16;23.20;;;15.80;;
3801;SDS011;1916;51.798;12.246;2022-08-25T00:56:23;20.03;;;14.37;;
3801;SDS011;1916;51.798;12.246;2022-08-25T00:58:27;16.57;;;13.60;;
3801;SDS011;1916;51.798;12.246;2022-08-25T01:00:36;16.43;;;13.57;;
3801;SDS011;1916;51.798;12.246;2022-08-25T01:02:40;22.20;;;14.40;;
3801;SDS011;1916;51.798;12.246;2022-08-25T01:04:42;19.57;;;14.83;;
3801;SDS011;1916;51.798;12.246;2022-08-25T01:06:49;19.33;;;14.00;;
3801;SDS011;1916;51.798;12.246;2022-08-25T01:08:52;17.70;;;14.23;;
3801;SDS011;1916;51.798;12.246;2022-08-25T01:10:55;22.93;;;15.23;;
3801;SDS011;1916;51.798;12.246;2022-08-25T01:13:07;17.13;;;14.80;;
3801;SDS011;1916;51.798;12.246;2022-08-25T01:15:17;19.70;;;14.00;;
3801;SDS011;1916;51.798;12.246;2022-08-25T01:17:19;18.50;;;12.73;;
3801;SDS011;1916;51.798;12.246;2022-08-25T01:19:22;17.27;;;13.73;;
3801;SDS011;1916;51.798;12.246;2022-08-25T01:21:27;23.47;;;15.07;;
3801;SDS011;1916;51.798;12.246;2022-08-25T01:23:30;16.43;;;13.93;;
3801;SDS011;1916;51.798;12.246;2022-08-25T01:27:52;21.37;;;13.83;;
3801;SDS011;1916;51.798;12.246;2022-08-25T01:29:54;16.30;;;13.87;;
3801;SDS011;1916;51.798;12.246;2022-08-25T01:31:58;17.33;;;13.60;;
3801;SDS011;1916;51.798;12.246;2022-08-25T01:34:05;18.87;;;15.27;;
3801;SDS011;1916;51.798;12.246;2022-08-25T01:36:08;18.70;;;14.00;;
3801;SDS011;1916;51.798;12.246;2022-08-25T01:38:10;21.80;;;13.90;;
3801;SDS011;1916;51.798;12.246;2022-08-25T01:40:12;20.13;;;15.07;;
3801;SDS011;1916;51.798;12.246;2022-08-25T01:45:00;27.23;;;17.70;;
3801;SDS011;1916;51.798;12.246;2022-08-25T01:47:03;28.90;;;19.97;;
3801;SDS011;1916;51.798;12.246;2022-08-25T01:49:05;27.10;;;18.33;;
3801;SDS011;1916;51.798;12.246;2022-08-25T01:51:08;25.33;;;18.07;;
3801;SDS011;1916;51.798;12.246;2022-08-25T01:55:34;31.37;;;19.97;;
3801;SDS011;1916;51.798;12.246;2022-08-25T01:57:52;35.70;;;21.50;;
3801;SDS011;1916;51.798;12.246;2022-08-25T01:59:54;28.60;;;19.00;;
3801;SDS011;1916;51.798;12.246;2022-08-25T02:01:56;31.57;;;18.67;;
3801;SDS011;1916;51.798;12.246;2022-08-25T02:04:00;33.60;;;21.20;;
3801;SDS011;1916;51.798;12.246;2022-08-25T02:06:03;29.30;;;20.37;;
3801;SDS011;1916;51.798;12.246;2022-08-25T02:08:06;33.83;;;20.57;;
3801;SDS011;1916;51.798;12.246;2022-08-25T02:10:09;28.83;;;20.57;;
3801;SDS011;1916;51.798;12.246;2022-08-25T02:12:13;38.50;;;21.13;;
3801;SDS011;1916;51.798;12.246;2022-08-25T02:14:16;31.33;;;21.53;;
3801;SDS011;1916;51.798;12.246;2022-08-25T02:16:24;32.77;;;19.67;;
3801;SDS011;1916;51.798;12.246;2022-08-25T02:18:29;26.43;;;19.30;;
3801;SDS011;1916;51.798;12.246;2022-08-25T02:20:31;25.60;;;18.37;;
3801;SDS011;1916;51.798;12.246;2022-08-25T02:22:33;30.13;;;18.87;;
3801;SDS011;1916;51.798;12.246;2022-08-25T02:24:35;30.60;;;18.40;;
3801;SDS011;1916;51.798;12.246;2022-08-25T02:26:37;24.83;;;18.30;;
3801;SDS011;1916;51.798;12.246;2022-08-25T02:28:39;25.00;;;16.40;;
3801;SDS011;1916;51.798;12.246;2022-08-25T02:30:41;25.00;;;18.63;;
3801;SDS011;1916;51.798;12.246;2022-08-25T02:32:44;31.00;;;17.93;;
3801;SDS011;1916;51.798;12.246;2022-08-25T02:34:47;27.27;;;17.87;;
3801;SDS011;1916;51.798;12.246;2022-08-25T02:36:49;25.57;;;16.83;;
3801;SDS011;1916;51.798;12.246;2022-08-25T02:38:51;27.97;;;17.27;;
3801;SDS011;1916;51.798;12.246;2022-08-25T02:40:54;20.83;;;16.10;;
3801;SDS011;1916;51.798;12.246;2022-08-25T02:42:56;26.77;;;17.40;;
3801;SDS011;1916;51.798;12.246;2022-08-25T02:44:59;25.07;;;16.97;;
3801;SDS011;1916;51.798;12.246;2022-08-25T02:47:01;21.90;;;16.77;;
3801;SDS011;1916;51.798;12.246;2022-08-25T02:49:04;22.53;;;16.60;;
3801;SDS011;1916;51.798;12.246;2022-08-25T02:51:07;22.47;;;14.70;;
3801;SDS011;1916;51.798;12.246;2022-08-25T02:53:09;22.80;;;16.73;;
3801;SDS011;1916;51.798;12.246;2022-08-25T02:55:13;19.20;;;15.80;;
3801;SDS011;1916;51.798;12.246;2022-08-25T02:57:15;20.27;;;14.70;;
3801;SDS011;1916;51.798;12.246;2022-08-25T02:59:18;20.20;;;15.60;;
3801;SDS011;1916;51.798;12.246;2022-08-25T03:01:21;22.33;;;14.60;;
3801;SDS011;1916;51.798;12.246;2022-08-25T03:03:29;18.33;;;13.90;;
3801;SDS011;1916;51.798;12.246;2022-08-25T03:05:32;15.67;;;13.53;;
3801;SDS011;1916;51.798;12.246;2022-08-25T03:07:34;16.57;;;14.53;;
3801;SDS011;1916;51.798;12.246;2022-08-25T03:09:38;17.47;;;12.93;;
3801;SDS011;1916;51.798;12.246;2022-08-25T03:11:40;18.57;;;14.43;;
3801;SDS011;1916;51.798;12.246;2022-08-25T03:13:42;20.33;;;15.13;;
3801;SDS011;1916;51.798;12.246;2022-08-25T03:15:45;16.30;;;13.87;;
3801;SDS011;1916;51.798;12.246;2022-08-25T03:17:49;27.50;;;14.40;;
3801;SDS011;1916;51.798;12.246;2022-08-25T03:19:52;25.63;;;13.13;;
3801;SDS011;1916;51.798;12.246;2022-08-25T03:21:54;22.03;;;14.70;;
3801;SDS011;1916;51.798;12.246;2022-08-25T03:23:57;19.07;;;13.70;;
3801;SDS011;1916;51.798;12.246;2022-08-25T03:25:59;18.03;;;13.97;;
3801;SDS011;1916;51.798;12.246;2022-08-25T03:28:20;15.17;;;13.20;;
3801;SDS011;1916;51.798;12.246;2022-08-25T03:30:30;22.17;;;15.07;;
3801;SDS011;1916;51.798;12.246;2022-08-25T03:32:32;19.57;;;14.97;;
3801;SDS011;1916;51.798;12.246;2022-08-25T03:34:34;15.93;;;13.13;;
3801;SDS011;1916;51.798;12.246;2022-08-25T03:36:37;20.17;;;13.87;;
3801;SDS011;1916;51.798;12.246;2022-08-25T03:38:39;17.27;;;14.00;;
3801;SDS011;1916;51.798;12.246;2022-08-25T03:40:41;16.70;;;13.20;;
3801;SDS011;1916;51.798;12.246;2022-08-25T03:42:44;18.03;;;13.37;;
3801;SDS011;1916;51.798;12.246;2022-08-25T03:44:46;25.63;;;13.83;;
3801;SDS011;1916;51.798;12.246;2022-08-25T03:46:49;24.07;;;15.10;;
3801;SDS011;1916;51.798;12.246;2022-08-25T03:48:52;20.67;;;14.10;;
3801;SDS011;1916;51.798;12.246;2022-08-25T03:50:54;20.40;;;14.40;;
3801;SDS011;1916;51.798;12.246;2022-08-25T03:52:56;25.97;;;13.47;;
3801;SDS011;1916;51.798;12.246;2022-08-25T03:54:58;15.23;;;13.57;;
3801;SDS011;1916;51.798;12.246;2022-08-25T03:57:01;17.30;;;13.67;;
3801;SDS011;1916;51.798;12.246;2022-08-25T03:59:04;16.70;;;13.50;;
3801;SDS011;1916;51.798;12.246;2022-08-25T04:01:09;21.00;;;13.37;;
3801;SDS011;1916;51.798;12.246;2022-08-25T04:03:12;16.50;;;13.47;;
3801;SDS011;1916;51.798;12.246;2022-08-25T04:05:14;14.83;;;12.87;;
3801;SDS011;1916;51.798;12.246;2022-08-25T04:07:16;18.57;;;12.87;;
3801;SDS011;1916;51.798;12.246;2022-08-25T04:09:18;16.17;;;13.20;;
3801;SDS011;1916;51.798;12.246;2022-08-25T04:11:21;14.37;;;12.63;;
3801;SDS011;1916;51.798;12.246;2022-08-25T04:13:23;16.43;;;13.07;;
3801;SDS011;1916;51.798;12.246;2022-08-25T04:15:25;22.00;;;14.30;;
3801;SDS011;1916;51.798;12.246;2022-08-25T04:17:30;15.57;;;12.50;;
3801;SDS011;1916;51.798;12.246;2022-08-25T04:19:33;18.83;;;13.43;;
3801;SDS011;1916;51.798;12.246;2022-08-25T04:21:36;16.17;;;12.40;;
3801;SDS011;1916;51.798;12.246;2022-08-25T04:23:40;15.03;;;11.97;;
3801;SDS011;1916;51.798;12.246;2022-08-25T04:25:43;21.43;;;13.30;;
3801;SDS011;1916;51.798;12.246;2022-08-25T04:27:46;14.67;;;12.77;;
3801;SDS011;1916;51.798;12.246;2022-08-25T04:29:48;17.00;;;13.07;;
3801;SDS011;1916;51.798;12.246;2022-08-25T04:31:51;16.83;;;13.00;;
3801;SDS011;1916;51.798;12.246;2022-08-25T04:33:54;20.33;;;13.33;;
3801;SDS011;1916;51.798;12.246;2022-08-25T04:35:56;22.33;;;13.83;;
3801;SDS011;1916;51.798;12.246;2022-08-25T04:37:59;16.10;;;13.87;;
3801;SDS011;1916;51.798;12.246;2022-08-25T04:40:01;20.80;;;12.60;;
3801;SDS011;1916;51.798;12.246;2022-08-25T04:42:04;18.13;;;13.40;;
3801;SDS011;1916;51.798;12.246;2022-08-25T04:44:06;21.37;;;13.97;;
3801;SDS011;1916;51.798;12.246;2022-08-25T04:46:10;16.73;;;12.87;;
3801;SDS011;1916;51.798;12.246;2022-08-25T04:48:20;17.87;;;13.33;;
3801;SDS011;1916;51.798;12.246;2022-08-25T04:50:23;16.40;;;13.30;;
3801;SDS011;1916;51.798;12.246;2022-08-25T04:52:26;19.10;;;13.30;;
3801;SDS011;1916;51.798;12.246;2022-08-25T04:54:28;15.33;;;12.40;;
3801;SDS011;1916;51.798;12.246;2022-08-25T04:56:40;16.30;;;13.00;;
3801;SDS011;1916;51.798;12.246;2022-08-25T04:58:43;19.80;;;13.70;;
3801;SDS011;1916;51.798;12.246;2022-08-25T05:00:47;20.83;;;12.33;;
3801;SDS011;1916;51.798;12.246;2022-08-25T05:02:49;16.57;;;11.97;;
3801;SDS011;1916;51.798;12.246;2022-08-25T05:04:51;18.50;;;13.50;;
3801;SDS011;1916;51.798;12.246;2022-08-25T05:06:56;16.30;;;13.00;;
3801;SDS011;1916;51.798;12.246;2022-08-25T05:08:58;17.40;;;13.90;;
3801;SDS011;1916;51.798;12.246;2022-08-25T05:11:06;17.97;;;13.07;;
3801;SDS011;1916;51.798;12.246;2022-08-25T05:13:10;20.03;;;13.90;;
3801;SDS011;1916;51.798;12.246;2022-08-25T05:15:12;19.00;;;13.47;;
3801;SDS011;1916;51.798;12.246;2022-08-25T05:17:34;15.87;;;12.67;;
3801;SDS011;1916;51.798;12.246;2022-08-25T05:19:36;16.00;;;13.70;;
3801;SDS011;1916;51.798;12.246;2022-08-25T05:21:39;22.47;;;14.23;;
3801;SDS011;1916;51.798;12.246;2022-08-25T05:23:41;25.20;;;14.33;;
3801;SDS011;1916;51.798;12.246;2022-08-25T05:25:43;20.50;;;15.27;;
3801;SDS011;1916;51.798;12.246;2022-08-25T05:27:45;25.97;;;15.43;;
3801;SDS011;1916;51.798;12.246;2022-08-25T05:29:47;21.93;;;15.77;;
3801;SDS011;1916;51.798;12.246;2022-08-25T05:31:49;21.70;;;14.87;;
3801;SDS011;1916;51.798;12.246;2022-08-25T05:33:52;23.73;;;15.20;;
3801;SDS011;1916;51.798;12.246;2022-08-25T05:35:55;19.90;;;15.60;;
3801;SDS011;1916;51.798;12.246;2022-08-25T05:37:57;17.90;;;14.70;;
3801;SDS011;1916;51.798;12.246;2022-08-25T05:39:58;23.10;;;16.20;;
3801;SDS011;1916;51.798;12.246;2022-08-25T05:42:01;34.43;;;17.90;;
3801;SDS011;1916;51.798;12.246;2022-08-25T05:44:03;22.43;;;15.80;;
3801;SDS011;1916;51.798;12.246;2022-08-25T05:46:06;19.67;;;16.13;;
3801;SDS011;1916;51.798;12.246;2022-08-25T05:48:09;25.00;;;15.87;;
3801;SDS011;1916;51.798;12.246;2022-08-25T05:50:11;24.80;;;16.50;;
3801;SDS011;1916;51.798;12.246;2022-08-25T05:52:13;23.40;;;17.20;;
3801;SDS011;1916;51.798;12.246;2022-08-25T05:54:20;22.33;;;16.30;;
3801;SDS011;1916;51.798;12.246;2022-08-25T05:56:22;22.13;;;17.00;;
3801;SDS011;1916;51.798;12.246;2022-08-25T05:58:25;24.80;;;17.83;;
3801;SDS011;1916;51.798;12.246;2022-08-25T06:00:30;27.13;;;17.53;;
3801;SDS011;1916;51.798;12.246;2022-08-25T06:02:32;22.97;;;16.47;;
3801;SDS011;1916;51.798;12.246;2022-08-25T06:04:48;26.60;;;18.23;;
3801;SDS011;1916;51.798;12.246;2022-08-25T06:06:50;22.63;;;15.73;;
3801;SDS011;1916;51.798;12.246;2022-08-25T06:08:55;16.87;;;13.93;;
3801;SDS011;1916;51.798;12.246;2022-08-25T06:10:57;19.80;;;14.77;;
3801;SDS011;1916;51.798;12.246;2022-08-25T06:12:59;19.17;;;14.10;;
3801;SDS011;1916;51.798;12.246;2022-08-25T06:15:02;18.23;;;13.60;;
3801;SDS011;1916;51.798;12.246;2022-08-25T06:17:05;19.27;;;12.53;;
3801;SDS011;1916;51.798;12.246;2022-08-25T06:19:08;16.90;;;13.00;;
3801;SDS011;1916;51.798;12.246;2022-08-25T06:21:12;16.20;;;12.37;;
3801;SDS011;1916;51.798;12.246;2022-08-25T06:23:15;21.83;;;12.00;;
3801;SDS011;1916;51.798;12.246;2022-08-25T06:25:20;14.90;;;12.20;;
3801;SDS011;1916;51.798;12.246;2022-08-25T06:27:23;23.03;;;13.23;;
3801;SDS011;1916;51.798;12.246;2022-08-25T06:29:25;17.00;;;12.70;;
3801;SDS011;1916;51.798;12.246;2022-08-25T06:31:27;18.03;;;13.13;;
3801;SDS011;1916;51.798;12.246;2022-08-25T06:33:30;16.03;;;12.57;;
3801;SDS011;1916;51.798;12.246;2022-08-25T06:35:32;24.30;;;13.00;;
3801;SDS011;1916;51.798;12.246;2022-08-25T06:37:35;23.50;;;12.73;;
3801;SDS011;1916;51.798;12.246;2022-08-25T06:39:37;20.70;;;11.87;;
3801;SDS011;1916;51.798;12.246;2022-08-25T06:41:39;17.77;;;11.97;;
3801;SDS011;1916;51.798;12.246;2022-08-25T06:43:42;15.23;;;11.07;;
3801;SDS011;1916;51.798;12.246;2022-08-25T06:45:49;20.37;;;11.23;;
3801;SDS011;1916;51.798;12.246;2022-08-25T06:47:51;13.00;;;10.50;;
3801;SDS011;1916;51.798;12.246;2022-08-25T06:49:55;12.60;;;9.50;;
3801;SDS011;1916;51.798;12.246;2022-08-25T06:51:57;17.97;;;12.37;;
3801;SDS011;1916;51.798;12.246;2022-08-25T06:53:59;16.03;;;10.77;;
3801;SDS011;1916;51.798;12.246;2022-08-25T06:56:01;19.80;;;11.73;;
3801;SDS011;1916;51.798;12.246;2022-08-25T06:58:07;17.27;;;10.83;;
3801;SDS011;1916;51.798;12.246;2022-08-25T07:00:11;13.13;;;10.83;;
3801;SDS011;1916;51.798;12.246;2022-08-25T07:02:14;15.13;;;11.80;;
3801;SDS011;1916;51.798;12.246;2022-08-25T07:04:22;15.80;;;10.07;;
3801;SDS011;1916;51.798;12.246;2022-08-25T07:06:27;15.53;;;11.70;;
3801;SDS011;1916;51.798;12.246;2022-08-25T07:08:32;15.90;;;9.93;;
3801;SDS011;1916;51.798;12.246;2022-08-25T07:10:35;13.17;;;10.13;;
3801;SDS011;1916;51.798;12.246;2022-08-25T07:12:37;15.10;;;10.47;;
3801;SDS011;1916;51.798;12.246;2022-08-25T07:14:40;15.10;;;10.80;;
3801;SDS011;1916;51.798;12.246;2022-08-25T07:16:54;20.17;;;10.00;;
3801;SDS011;1916;51.798;12.246;2022-08-25T07:18:56;13.33;;;9.67;;
3801;SDS011;1916;51.798;12.246;2022-08-25T07:21:00;15.00;;;10.07;;
3801;SDS011;1916;51.798;12.246;2022-08-25T07:23:04;12.33;;;11.00;;
3801;SDS011;1916;51.798;12.246;2022-08-25T07:25:07;16.77;;;11.00;;
3801;SDS011;1916;51.798;12.246;2022-08-25T07:27:11;12.67;;;10.20;;
3801;SDS011;1916;51.798;12.246;2022-08-25T07:29:20;15.03;;;9.70;;
3801;SDS011;1916;51.798;12.246;2022-08-25T07:31:33;17.80;;;10.03;;
3801;SDS011;1916;51.798;12.246;2022-08-25T07:33:35;15.30;;;9.77;;
3801;SDS011;1916;51.798;12.246;2022-08-25T07:35:38;13.40;;;9.93;;
3801;SDS011;1916;51.798;12.246;2022-08-25T07:37:44;10.67;;;9.57;;
3801;SDS011;1916;51.798;12.246;2022-08-25T07:39:51;16.70;;;9.50;;
3801;SDS011;1916;51.798;12.246;2022-08-25T07:41:54;12.87;;;10.67;;
3801;SDS011;1916;51.798;12.246;2022-08-25T07:43:56;14.57;;;9.90;;
3801;SDS011;1916;51.798;12.246;2022-08-25T07:45:58;10.93;;;9.53;;
3801;SDS011;1916;51.798;12.246;2022-08-25T07:48:09;18.20;;;10.20;;
3801;SDS011;1916;51.798;12.246;2022-08-25T07:50:13;15.87;;;9.80;;
3801;SDS011;1916;51.798;12.246;2022-08-25T07:52:15;16.40;;;9.33;;
3801;SDS011;1916;51.798;12.246;2022-08-25T07:54:18;13.73;;;10.27;;
3801;SDS011;1916;51.798;12.246;2022-08-25T07:56:19;16.83;;;9.17;;
3801;SDS011;1916;51.798;12.246;2022-08-25T07:58:22;14.53;;;9.20;;
3801;SDS011;1916;51.798;12.246;2022-08-25T08:00:25;19.80;;;10.53;;
3801;SDS011;1916;51.798;12.246;2022-08-25T08:02:31;16.10;;;9.63;;
3801;SDS011;1916;51.798;12.246;2022-08-25T08:04:34;16.13;;;9.80;;
3801;SDS011;1916;51.798;12.246;2022-08-25T08:06:37;14.90;;;9.50;;
3801;SDS011;1916;51.798;12.246;2022-08-25T08:08:40;14.63;;;9.50;;
3801;SDS011;1916;51.798;12.246;2022-08-25T08:10:45;13.23;;;10.20;;
3801;SDS011;1916;51.798;12.246;2022-08-25T08:13:06;12.73;;;9.70;;
3801;SDS011;1916;51.798;12.246;2022-08-25T08:15:08;14.07;;;8.60;;
3801;SDS011;1916;51.798;12.246;2022-08-25T08:17:11;16.30;;;9.77;;
3801;SDS011;1916;51.798;12.246;2022-08-25T08:19:17;16.43;;;9.43;;
3801;SDS011;1916;51.798;12.246;2022-08-25T08:21:24;17.50;;;9.63;;
3801;SDS011;1916;51.798;12.246;2022-08-25T08:23:28;14.13;;;8.60;;
3801;SDS011;1916;51.798;12.246;2022-08-25T08:25:31;12.57;;;9.30;;
3801;SDS011;1916;51.798;12.246;2022-08-25T08:27:33;18.03;;;10.10;;
3801;SDS011;1916;51.798;12.246;2022-08-25T08:29:37;16.07;;;9.50;;
3801;SDS011;1916;51.798;12.246;2022-08-25T08:31:39;11.23;;;8.73;;
3801;SDS011;1916;51.798;12.246;2022-08-25T08:33:49;14.40;;;8.50;;
3801;SDS011;1916;51.798;12.246;2022-08-25T08:35:55;15.23;;;9.07;;
3801;SDS011;1916;51.798;12.246;2022-08-25T08:38:05;20.23;;;9.43;;
3801;SDS011;1916;51.798;12.246;2022-08-25T08:40:17;14.20;;;9.40;;
3801;SDS011;1916;51.798;12.246;2022-08-25T08:42:24;15.57;;;10.23;;
3801;SDS011;1916;51.798;12.246;2022-08-25T08:44:52;21.57;;;11.20;;
3801;SDS011;1916;51.798;12.246;2022-08-25T08:49:24;17.57;;;9.40;;
3801;SDS011;1916;51.798;12.246;2022-08-25T08:51:34;13.17;;;9.37;;
3801;SDS011;1916;51.798;12.246;2022-08-25T08:53:52;21.03;;;9.40;;
3801;SDS011;1916;51.798;12.246;2022-08-25T08:55:59;15.90;;;9.93;;
3801;SDS011;1916;51.798;12.246;2022-08-25T08:58:05;16.30;;;10.70;;
3801;SDS011;1916;51.798;12.246;2022-08-25T09:00:10;12.43;;;8.60;;
3801;SDS011;1916;51.798;12.246;2022-08-25T09:02:16;19.13;;;9.70;;
3801;SDS011;1916;51.798;12.246;2022-08-25T09:04:46;13.90;;;10.53;;
3801;SDS011;1916;51.798;12.246;2022-08-25T09:06:50;16.73;;;9.30;;
3801;SDS011;1916;51.798;12.246;2022-08-25T09:08:53;9.80;;;8.33;;
3801;SDS011;1916;51.798;12.246;2022-08-25T09:11:34;16.63;;;9.50;;
3801;SDS011;1916;51.798;12.246;2022-08-25T09:16:16;15.47;;;8.83;;
3801;SDS011;1916;51.798;12.246;2022-08-25T09:27:49;18.77;;;8.43;;
3801;SDS011;1916;51.798;12.246;2022-08-25T09:30:19;16.37;;;9.00;;
3801;SDS011;1916;51.798;12.246;2022-08-25T09:33:17;22.10;;;9.23;;
3801;SDS011;1916;51.798;12.246;2022-08-25T09:35:02;13.70;;;8.47;;
3801;SDS011;1916;51.798;12.246;2022-08-25T09:37:05;15.83;;;8.37;;
3801;SDS011;1916;51.798;12.246;2022-08-25T09:39:08;18.17;;;8.37;;
3801;SDS011;1916;51.798;12.246;2022-08-25T09:41:10;17.80;;;8.67;;
3801;SDS011;1916;51.798;12.246;2022-08-25T09:43:21;19.53;;;8.03;;
3801;SDS011;1916;51.798;12.246;2022-08-25T09:45:43;13.60;;;9.20;;
3801;SDS011;1916;51.798;12.246;2022-08-25T09:47:46;12.03;;;8.97;;
3801;SDS011;1916;51.798;12.246;2022-08-25T09:49:50;18.93;;;9.60;;
3801;SDS011;1916;51.798;12.246;2022-08-25T09:52:14;13.13;;;7.93;;
3801;SDS011;1916;51.798;12.246;2022-08-25T09:54:21;18.07;;;9.00;;
3801;SDS011;1916;51.798;12.246;2022-08-25T09:59:16;13.03;;;8.20;;
3801;SDS011;1916;51.798;12.246;2022-08-25T10:01:21;13.87;;;8.23;;
3801;SDS011;1916;51.798;12.246;2022-08-25T10:03:24;14.00;;;8.70;;
3801;SDS011;1916;51.798;12.246;2022-08-25T10:05:26;10.87;;;8.10;;
3801;SDS011;1916;51.798;12.246;2022-08-25T10:07:29;17.67;;;8.30;;
3801;SDS011;1916;51.798;12.246;2022-08-25T10:09:40;12.93;;;9.43;;
3801;SDS011;1916;51.798;12.246;2022-08-25T10:11:44;12.40;;;9.40;;
3801;SDS011;1916;51.798;12.246;2022-08-25T10:13:49;14.83;;;9.37;;
3801;SDS011;1916;51.798;12.246;2022-08-25T10:16:08;14.00;;;8.10;;
3801;SDS011;1916;51.798;12.246;2022-08-25T10:18:22;11.57;;;9.00;;
3801;SDS011;1916;51.798;12.246;2022-08-25T10:20:27;12.13;;;8.13;;
3801;SDS011;1916;51.798;12.246;2022-08-25T10:22:36;19.53;;;9.93;;
3801;SDS011;1916;51.798;12.246;2022-08-25T10:24:39;13.03;;;8.00;;
3801;SDS011;1916;51.798;12.246;2022-08-25T10:33:36;10.73;;;8.80;;
3801;SDS011;1916;51.798;12.246;2022-08-25T10:35:56;17.60;;;8.30;;
3801;SDS011;1916;51.798;12.246;2022-08-25T10:43:35;13.57;;;8.37;;
3801;SDS011;1916;51.798;12.246;2022-08-25T10:45:44;14.53;;;8.97;;
3801;SDS011;1916;51.798;12.246;2022-08-25T10:52:29;20.20;;;7.97;;
3801;SDS011;1916;51.798;12.246;2022-08-25T10:54:45;14.90;;;8.73;;
3801;SDS011;1916;51.798;12.246;2022-08-25T10:56:50;14.57;;;8.40;;
3801;SDS011;1916;51.798;12.246;2022-08-25T11:03:56;15.43;;;8.80;;
3801;SDS011;1916;51.798;12.246;2022-08-25T11:06:04;12.73;;;7.63;;
3801;SDS011;1916;51.798;12.246;2022-08-25T11:10:30;13.07;;;8.70;;
3801;SDS011;1916;51.798;12.246;2022-08-25T11:12:42;14.33;;;7.53;;
3801;SDS011;1916;51.798;12.246;2022-08-25T11:14:49;17.60;;;8.17;;
3801;SDS011;1916;51.798;12.246;2022-08-25T11:16:56;19.10;;;9.03;;
3801;SDS011;1916;51.798;12.246;2022-08-25T11:19:08;14.00;;;7.33;;
3801;SDS011;1916;51.798;12.246;2022-08-25T11:21:13;15.50;;;7.70;;
3801;SDS011;1916;51.798;12.246;2022-08-25T11:23:27;12.80;;;8.70;;
3801;SDS011;1916;51.798;12.246;2022-08-25T11:25:44;15.70;;;8.93;;
3801;SDS011;1916;51.798;12.246;2022-08-25T11:30:09;19.57;;;8.90;;
3801;SDS011;1916;51.798;12.246;2022-08-25T11:32:13;20.97;;;8.80;;
3801;SDS011;1916;51.798;12.246;2022-08-25T11:34:15;16.80;;;9.30;;
3801;SDS011;1916;51.798;12.246;2022-08-25T11:36:28;15.47;;;8.50;;
3801;SDS011;1916;51.798;12.246;2022-08-25T11:45:41;12.43;;;9.03;;
3801;SDS011;1916;51.798;12.246;2022-08-25T11:48:06;16.30;;;8.47;;
3801;SDS011;1916;51.798;12.246;2022-08-25T11:50:31;18.37;;;8.60;;
3801;SDS011;1916;51.798;12.246;2022-08-25T11:52:42;16.30;;;8.63;;
3801;SDS011;1916;51.798;12.246;2022-08-25T11:54:47;12.90;;;8.10;;
3801;SDS011;1916;51.798;12.246;2022-08-25T11:56:54;16.33;;;7.90;;
3801;SDS011;1916;51.798;12.246;2022-08-25T11:59:00;13.77;;;8.80;;
3801;SDS011;1916;51.798;12.246;2022-08-25T12:01:02;12.00;;;9.17;;
3801;SDS011;1916;51.798;12.246;2022-08-25T12:10:23;17.10;;;8.50;;
3801;SDS011;1916;51.798;12.246;2022-08-25T12:18:38;23.17;;;9.00;;
3801;SDS011;1916;51.798;12.246;2022-08-25T12:22:57;18.63;;;8.97;;
3801;SDS011;1916;51.798;12.246;2022-08-25T12:25:07;18.50;;;8.50;;
3801;SDS011;1916;51.798;12.246;2022-08-25T12:27:29;25.90;;;9.87;;
3801;SDS011;1916;51.798;12.246;2022-08-25T12:29:44;15.00;;;9.30;;
3801;SDS011;1916;51.798;12.246;2022-08-25T12:31:59;14.73;;;8.47;;
3801;SDS011;1916;51.798;12.246;2022-08-25T12:37:10;16.47;;;9.17;;
3801;SDS011;1916;51.798;12.246;2022-08-25T12:39:18;13.60;;;8.10;;
3801;SDS011;1916;51.798;12.246;2022-08-25T12:41:25;14.97;;;9.00;;
3801;SDS011;1916;51.798;12.246;2022-08-25T12:43:32;14.67;;;8.20;;
3801;SDS011;1916;51.798;12.246;2022-08-25T12:45:40;15.23;;;9.37;;
3801;SDS011;1916;51.798;12.246;2022-08-25T12:47:47;13.60;;;8.30;;
3801;SDS011;1916;51.798;12.246;2022-08-25T12:49:50;18.23;;;8.77;;
3801;SDS011;1916;51.798;12.246;2022-08-25T12:51:53;24.00;;;8.80;;
3801;SDS011;1916;51.798;12.246;2022-08-25T12:56:57;17.50;;;8.20;;
3801;SDS011;1916;51.798;12.246;2022-08-25T12:59:14;14.40;;;8.20;;
3801;SDS011;1916;51.798;12.246;2022-08-25T13:06:14;15.57;;;8.90;;
3801;SDS011;1916;51.798;12.246;2022-08-25T13:11:14;13.90;;;9.13;;
3801;SDS011;1916;51.798;12.246;2022-08-25T13:15:34;16.63;;;7.83;;
3801;SDS011;1916;51.798;12.246;2022-08-25T13:17:38;19.50;;;9.20;;
3801;SDS011;1916;51.798;12.246;2022-08-25T13:19:40;17.00;;;8.23;;
3801;SDS011;1916;51.798;12.246;2022-08-25T13:21:42;17.13;;;8.10;;
3801;SDS011;1916;51.798;12.246;2022-08-25T13:23:46;14.87;;;8.47;;
3801;SDS011;1916;51.798;12.246;2022-08-25T13:25:54;16.13;;;7.80;;
3801;SDS011;1916;51.798;12.246;2022-08-25T13:28:00;19.77;;;8.70;;
3801;SDS011;1916;51.798;12.246;2022-08-25T13:30:05;17.57;;;9.13;;
3801;SDS011;1916;51.798;12.246;2022-08-25T13:32:10;17.43;;;7.60;;
3801;SDS011;1916;51.798;12.246;2022-08-25T13:34:19;15.50;;;7.93;;
3801;SDS011;1916;51.798;12.246;2022-08-25T13:36:41;20.60;;;8.40;;
3801;SDS011;1916;51.798;12.246;2022-08-25T13:39:13;22.83;;;8.33;;
3801;SDS011;1916;51.798;12.246;2022-08-25T13:41:34;12.37;;;7.27;;
3801;SDS011;1916;51.798;12.246;2022-08-25T13:43:37;27.33;;;7.80;;
3801;SDS011;1916;51.798;12.246;2022-08-25T13:45:43;21.30;;;8.03;;
3801;SDS011;1916;51.798;12.246;2022-08-25T13:47:50;18.87;;;7.70;;
3801;SDS011;1916;51.798;12.246;2022-08-25T13:50:13;16.57;;;8.27;;
3801;SDS011;1916;51.798;12.246;2022-08-25T13:52:25;17.10;;;7.33;;
3801;SDS011;1916;51.798;12.246;2022-08-25T13:56:35;26.00;;;7.80;;
3801;SDS011;1916;51.798;12.246;2022-08-25T13:58:42;18.27;;;7.53;;
3801;SDS011;1916;51.798;12.246;2022-08-25T14:00:48;15.80;;;8.30;;
3801;SDS011;1916;51.798;12.246;2022-08-25T14:03:02;16.13;;;8.53;;